sensor_id;sensor_type;location;lat;lon;timestamp;pressure;altitude;pressure_sealevel;temperature;humidity
14041;BME280;7095;51.388;6.196;2022-12-16T00:01:39;54777.66;;;-145.32;100.00
14041;BME280;7095;51.388;6.196;2022-12-16T00:04:10;54809.50;;;-145.32;100.00
14041;BME280;7095;51.388;6.196;2022-12-16T00:06:39;54743.84;;;-145.32;100.00
14041;BME280;7095;51.388;6.196;2022-12-16T00:09:07;54827.38;;;-145.32;100.00
14041;BME280;7095;51.388;6.196;2022-12-16T00:11:36;54747.84;;;-145.32;100.00
14041;BME280;7095;51.388;6.196;2022-12-16T00:14:05;54771.69;;;-145.32;100.00
14041;BME280;7095;51.388;6.196;2022-12-16T00:16:34;54771.69;;;-145.32;100.00
14041;BME280;7095;51.388;6.196;2022-12-16T00:19:02;54789.59;;;-145.32;100.00
14041;BME280;7095;51.388;6.196;2022-12-16T00:21:33;54777.66;;;-145.32;100.00
14041;BME280;7095;51.388;6.196;2022-12-16T00:24:02;54821.41;;;-145.32;100.00
14041;BME280;7095;51.388;6.196;2022-12-16T00:26:31;54807.50;;;-145.32;100.00
14041;BME280;7095;51.388;6.196;2022-12-16T00:29:00;54835.34;;;-145.32;100.00
14041;BME280;7095;51.388;6.196;2022-12-16T00:31:31;54821.41;;;-145.32;100.00
14041;BME280;7095;51.388;6.196;2022-12-16T00:34:00;54791.59;;;-145.32;100.00
14041;BME280;7095;51.388;6.196;2022-12-16T00:36:29;54819.44;;;-145.32;100.00
14041;BME280;7095;51.388;6.196;2022-12-16T00:38:59;54823.41;;;-145.32;100.00
14041;BME280;7095;51.388;6.196;2022-12-16T00:41:28;54775.69;;;-145.32;100.00
14041;BME280;7095;51.388;6.196;2022-12-16T00:43:56;54755.78;;;-145.32;100.00
14041;BME280;7095;51.388;6.196;2022-12-16T00:46:25;54831.38;;;-145.32;100.00
14041;BME280;7095;51.388;6.196;2022-12-16T00:48:54;54847.28;;;-145.32;100.00
14041;BME280;7095;51.388;6.196;2022-12-16T00:51:25;54871.16;;;-145.32;100.00
14041;BME280;7095;51.388;6.196;2022-12-16T00:53:54;54871.16;;;-145.32;100.00
14041;BME280;7095;51.388;6.196;2022-12-16T00:56:24;54853.25;;;-145.32;100.00
14041;BME280;7095;51.388;6.196;2022-12-16T00:58:53;54887.06;;;-145.32;100.00
14041;BME280;7095;51.388;6.196;2022-12-16T01:01:22;54899.00;;;-145.32;100.00
14041;BME280;7095;51.388;6.196;2022-12-16T01:03:50;54936.78;;;-145.32;100.00
14041;BME280;7095;51.388;6.196;2022-12-16T01:06:21;54940.75;;;-145.32;100.00
14041;BME280;7095;51.388;6.196;2022-12-16T01:08:50;54958.66;;;-145.32;100.00
14041;BME280;7095;51.388;6.196;2022-12-16T01:11:25;54970.59;;;-145.32;100.00
14041;BME280;7095;51.388;6.196;2022-12-16T01:13:54;54980.53;;;-145.32;100.00
14041;BME280;7095;51.388;6.196;2022-12-16T01:16:22;54984.50;;;-145.32;100.00
14041;BME280;7095;51.388;6.196;2022-12-16T01:18:51;55058.09;;;-145.32;100.00
14041;BME280;7095;51.388;6.196;2022-12-16T01:21:23;55050.16;;;-145.32;100.00
14041;BME280;7095;51.388;6.196;2022-12-16T01:23:52;55066.06;;;-145.32;100.00
14041;BME280;7095;51.388;6.196;2022-12-16T01:26:21;55095.88;;;-145.32;100.00
14041;BME280;7095;51.388;6.196;2022-12-16T01:28:52;55149.59;;;-145.32;100.00
14041;BME280;7095;51.388;6.196;2022-12-16T01:31:21;55117.78;;;-145.32;100.00
14041;BME280;7095;51.388;6.196;2022-12-16T01:33:50;55129.69;;;-145.32;100.00
14041;BME280;7095;51.388;6.196;2022-12-16T01:36:19;55153.56;;;-145.32;100.00
14041;BME280;7095;51.388;6.196;2022-12-16T01:38:49;55193.34;;;-145.32;100.00
14041;BME280;7095;51.388;6.196;2022-12-16T01:41:21;55247.06;;;-145.32;100.00
14041;BME280;7095;51.388;6.196;2022-12-16T01:43:50;55264.97;;;-145.32;100.00
14041;BME280;7095;51.388;6.196;2022-12-16T01:46:22;55312.69;;;-145.32;100.00
14041;BME280;7095;51.388;6.196;2022-12-16T01:48:54;55366.41;;;-145.32;100.00
14041;BME280;7095;51.388;6.196;2022-12-16T01:51:29;55362.44;;;-145.32;100.00
14041;BME280;7095;51.388;6.196;2022-12-16T01:54:04;55398.22;;;-145.32;100.00
14041;BME280;7095;51.388;6.196;2022-12-16T01:56:36;55438.03;;;-145.32;100.00
14041;BME280;7095;51.388;6.196;2022-12-16T01:59:09;55517.59;;;-145.32;100.00
14041;BME280;7095;51.388;6.196;2022-12-16T02:01:43;55483.78;;;-145.32;100.00
14041;BME280;7095;51.388;6.196;2022-12-16T02:04:12;55505.66;;;-145.32;100.00
14041;BME280;7095;51.388;6.196;2022-12-16T02:06:41;55471.84;;;-145.32;100.00
14041;BME280;7095;51.388;6.196;2022-12-16T02:09:11;55465.88;;;-145.32;100.00
14041;BME280;7095;51.388;6.196;2022-12-16T02:11:59;55499.69;;;-145.32;100.00
14041;BME280;7095;51.388;6.196;2022-12-16T02:14:58;55555.38;;;-145.32;100.00
14041;BME280;7095;51.388;6.196;2022-12-16T02:17:37;55607.09;;;-145.32;100.00
14041;BME280;7095;51.388;6.196;2022-12-16T02:20:32;55646.88;;;-145.32;100.00
14041;BME280;7095;51.388;6.196;2022-12-16T02:23:17;55408.19;;;-145.32;100.00
14041;BME280;7095;51.388;6.196;2022-12-16T02:29:12;55432.06;;;-145.32;100.00
14041;BME280;7095;51.388;6.196;2022-12-16T02:31:50;55507.63;;;-145.32;100.00
14041;BME280;7095;51.388;6.196;2022-12-16T02:34:28;55658.81;;;-145.32;100.00
14041;BME280;7095;51.388;6.196;2022-12-16T02:37:07;55710.56;;;-145.32;100.00
14041;BME280;7095;51.388;6.196;2022-12-16T02:39:47;55698.63;;;-145.32;100.00
14041;BME280;7095;51.388;6.196;2022-12-16T02:42:24;55716.50;;;-145.32;100.00
14041;BME280;7095;51.388;6.196;2022-12-16T02:45:00;55692.66;;;-145.32;100.00
14041;BME280;7095;51.388;6.196;2022-12-16T02:47:31;55495.69;;;-145.32;100.00
14041;BME280;7095;51.388;6.196;2022-12-16T02:50:00;55428.06;;;-145.32;100.00
14041;BME280;7095;51.388;6.196;2022-12-16T02:52:32;55539.47;;;-145.32;100.00
14041;BME280;7095;51.388;6.196;2022-12-16T02:55:03;55621.03;;;-145.32;100.00
14041;BME280;7095;51.388;6.196;2022-12-16T02:57:49;55605.13;;;-145.32;100.00
14041;BME280;7095;51.388;6.196;2022-12-16T03:00:21;55634.94;;;-145.32;100.00
14041;BME280;7095;51.388;6.196;2022-12-16T03:02:56;55674.75;;;-145.32;100.00
14041;BME280;7095;51.388;6.196;2022-12-16T03:05:31;55591.19;;;-145.32;100.00
14041;BME280;7095;51.388;6.196;2022-12-16T03:08:03;55491.72;;;-145.32;100.00
14041;BME280;7095;51.388;6.196;2022-12-16T03:10:37;55459.91;;;-145.32;100.00
14041;BME280;7095;51.388;6.196;2022-12-16T03:13:09;55475.81;;;-145.32;100.00
14041;BME280;7095;51.388;6.196;2022-12-16T03:15:39;55539.47;;;-145.32;100.00
14041;BME280;7095;51.388;6.196;2022-12-16T03:18:11;55481.78;;;-145.32;100.00
14041;BME280;7095;51.388;6.196;2022-12-16T03:20:45;55549.41;;;-145.32;100.00
14041;BME280;7095;51.388;6.196;2022-12-16T03:23:17;55527.53;;;-145.32;100.00
14041;BME280;7095;51.388;6.196;2022-12-16T03:25:49;55507.63;;;-145.32;100.00
14041;BME280;7095;51.388;6.196;2022-12-16T03:28:30;55495.69;;;-145.32;100.00
14041;BME280;7095;51.388;6.196;2022-12-16T03:31:08;55467.84;;;-145.32;100.00
14041;BME280;7095;51.388;6.196;2022-12-16T03:33:47;55438.03;;;-145.32;100.00
14041;BME280;7095;51.388;6.196;2022-12-16T03:36:21;55416.13;;;-145.32;100.00
14041;BME280;7095;51.388;6.196;2022-12-16T03:38:50;55422.09;;;-145.32;100.00
14041;BME280;7095;51.388;6.196;2022-12-16T03:41:22;55354.47;;;-145.32;100.00
14041;BME280;7095;51.388;6.196;2022-12-16T03:43:51;55408.19;;;-145.32;100.00
14041;BME280;7095;51.388;6.196;2022-12-16T03:46:20;55374.38;;;-145.32;100.00
14041;BME280;7095;51.388;6.196;2022-12-16T03:48:51;55372.38;;;-145.32;100.00
14041;BME280;7095;51.388;6.196;2022-12-16T03:51:20;55312.69;;;-145.32;100.00
14041;BME280;7095;51.388;6.196;2022-12-16T03:53:48;55247.06;;;-145.32;100.00
14041;BME280;7095;51.388;6.196;2022-12-16T03:56:17;55217.22;;;-145.32;100.00
14041;BME280;7095;51.388;6.196;2022-12-16T03:58:46;55229.16;;;-145.32;100.00
14041;BME280;7095;51.388;6.196;2022-12-16T04:01:14;55169.50;;;-145.32;100.00
14041;BME280;7095;51.388;6.196;2022-12-16T04:03:44;55191.38;;;-145.32;100.00
14041;BME280;7095;51.388;6.196;2022-12-16T04:06:14;55147.59;;;-145.32;100.00
14041;BME280;7095;51.388;6.196;2022-12-16T04:08:45;55181.41;;;-145.32;100.00
14041;BME280;7095;51.388;6.196;2022-12-16T04:11:14;55197.34;;;-145.32;100.00
14041;BME280;7095;51.388;6.196;2022-12-16T04:14:00;55215.22;;;-145.32;100.00
14041;BME280;7095;51.388;6.196;2022-12-16T04:16:47;55249.06;;;-145.32;100.00
14041;BME280;7095;51.388;6.196;2022-12-16T04:19:34;55201.31;;;-145.32;100.00
14041;BME280;7095;51.388;6.196;2022-12-16T04:22:26;55127.72;;;-145.32;100.00
14041;BME280;7095;51.388;6.196;2022-12-16T04:25:15;55109.81;;;-145.32;100.00
14041;BME280;7095;51.388;6.196;2022-12-16T04:27:44;55109.81;;;-145.32;100.00
14041;BME280;7095;51.388;6.196;2022-12-16T04:30:14;55151.59;;;-145.32;100.00
14041;BME280;7095;51.388;6.196;2022-12-16T04:32:52;55187.38;;;-145.32;100.00
14041;BME280;7095;51.388;6.196;2022-12-16T04:35:39;55121.75;;;-145.32;100.00
14041;BME280;7095;51.388;6.196;2022-12-16T04:38:30;55161.53;;;-145.32;100.00
14041;BME280;7095;51.388;6.196;2022-12-16T04:41:16;55191.38;;;-145.32;100.00
14041;BME280;7095;51.388;6.196;2022-12-16T04:44:03;55217.22;;;-145.32;100.00
14041;BME280;7095;51.388;6.196;2022-12-16T04:46:50;55173.47;;;-145.32;100.00
14041;BME280;7095;51.388;6.196;2022-12-16T04:49:36;55165.50;;;-145.32;100.00
14041;BME280;7095;51.388;6.196;2022-12-16T04:52:22;55141.63;;;-145.32;100.00
14041;BME280;7095;51.388;6.196;2022-12-16T04:55:10;55133.69;;;-145.32;100.00
14041;BME280;7095;51.388;6.196;2022-12-16T04:57:58;55193.34;;;-145.32;100.00
14041;BME280;7095;51.388;6.196;2022-12-16T05:00:46;55153.56;;;-145.32;100.00
14041;BME280;7095;51.388;6.196;2022-12-16T05:03:33;55169.50;;;-145.32;100.00
14041;BME280;7095;51.388;6.196;2022-12-16T05:06:20;55117.78;;;-145.32;100.00
14041;BME280;7095;51.388;6.196;2022-12-16T05:09:06;55087.94;;;-145.32;100.00
14041;BME280;7095;51.388;6.196;2022-12-16T05:11:54;55058.09;;;-145.32;100.00
14041;BME280;7095;51.388;6.196;2022-12-16T05:14:40;55066.06;;;-145.32;100.00
14041;BME280;7095;51.388;6.196;2022-12-16T05:17:26;55074.00;;;-145.32;100.00
14041;BME280;7095;51.388;6.196;2022-12-16T05:20:12;55117.78;;;-145.32;100.00
14041;BME280;7095;51.388;6.196;2022-12-16T05:22:58;55169.50;;;-145.32;100.00
14041;BME280;7095;51.388;6.196;2022-12-16T05:25:44;55223.19;;;-145.32;100.00
14041;BME280;7095;51.388;6.196;2022-12-16T05:28:32;55276.91;;;-145.32;100.00
14041;BME280;7095;51.388;6.196;2022-12-16T05:31:18;55280.88;;;-145.32;100.00
14041;BME280;7095;51.388;6.196;2022-12-16T05:34:04;55328.63;;;-145.32;100.00
14041;BME280;7095;51.388;6.196;2022-12-16T05:36:50;55408.19;;;-145.32;100.00
14041;BME280;7095;51.388;6.196;2022-12-16T05:39:37;55418.13;;;-145.32;100.00
14041;BME280;7095;51.388;6.196;2022-12-16T05:42:23;55438.03;;;-145.32;100.00
14041;BME280;7095;51.388;6.196;2022-12-16T05:45:11;55459.91;;;-145.32;100.00
14041;BME280;7095;51.388;6.196;2022-12-16T05:47:57;55563.34;;;-145.32;100.00
14041;BME280;7095;51.388;6.196;2022-12-16T05:50:43;55609.09;;;-145.32;100.00
14041;BME280;7095;51.388;6.196;2022-12-16T05:53:30;55615.06;;;-145.32;100.00
14041;BME280;7095;51.388;6.196;2022-12-16T05:56:16;55627.00;;;-145.32;100.00
14041;BME280;7095;51.388;6.196;2022-12-16T05:59:02;55728.44;;;-145.32;100.00
14041;BME280;7095;51.388;6.196;2022-12-16T06:01:50;55726.47;;;-145.32;100.00
14041;BME280;7095;51.388;6.196;2022-12-16T06:04:37;55734.41;;;-145.32;100.00
14041;BME280;7095;51.388;6.196;2022-12-16T06:07:23;55714.53;;;-145.32;100.00
14041;BME280;7095;51.388;6.196;2022-12-16T06:10:09;55770.22;;;-145.32;100.00
14041;BME280;7095;51.388;6.196;2022-12-16T06:12:51;55853.78;;;-145.32;100.00
14041;BME280;7095;51.388;6.196;2022-12-16T06:15:37;55933.38;;;-145.32;100.00
14041;BME280;7095;51.388;6.196;2022-12-16T06:18:25;56012.94;;;-145.32;100.00
14041;BME280;7095;51.388;6.196;2022-12-16T06:21:11;55989.06;;;-145.32;100.00
14041;BME280;7095;51.388;6.196;2022-12-16T06:23:57;56034.81;;;-145.32;100.00
14041;BME280;7095;51.388;6.196;2022-12-16T06:26:44;56066.66;;;-145.32;100.00
14041;BME280;7095;51.388;6.196;2022-12-16T06:29:30;56072.63;;;-145.32;100.00
14041;BME280;7095;51.388;6.196;2022-12-16T06:32:16;56140.28;;;-145.32;100.00
14041;BME280;7095;51.388;6.196;2022-12-16T06:35:03;56192.00;;;-145.32;100.00
14041;BME280;7095;51.388;6.196;2022-12-16T06:37:50;56263.63;;;-145.32;100.00
14041;BME280;7095;51.388;6.196;2022-12-16T06:40:38;56307.41;;;-145.32;100.00
14041;BME280;7095;51.388;6.196;2022-12-16T06:43:24;56201.97;;;-145.32;100.00
14041;BME280;7095;51.388;6.196;2022-12-16T06:46:10;56223.84;;;-145.32;100.00
14041;BME280;7095;51.388;6.196;2022-12-16T06:48:56;56275.56;;;-145.32;100.00
14041;BME280;7095;51.388;6.196;2022-12-16T06:51:44;56192.00;;;-145.32;100.00
14041;BME280;7095;51.388;6.196;2022-12-16T06:54:31;56096.50;;;-145.32;100.00
14041;BME280;7095;51.388;6.196;2022-12-16T06:57:17;56128.34;;;-145.32;100.00
14041;BME280;7095;51.388;6.196;2022-12-16T07:00:12;56154.22;;;-145.32;100.00
14041;BME280;7095;51.388;6.196;2022-12-16T07:03:07;56152.22;;;-145.32;100.00
14041;BME280;7095;51.388;6.196;2022-12-16T07:05:58;56176.09;;;-145.32;100.00
14041;BME280;7095;51.388;6.196;2022-12-16T07:08:49;56239.75;;;-145.32;100.00
14041;BME280;7095;51.388;6.196;2022-12-16T07:11:35;56323.31;;;-145.32;100.00
14041;BME280;7095;51.388;6.196;2022-12-16T07:14:22;56442.72;;;-145.32;100.00
14041;BME280;7095;51.388;6.196;2022-12-16T07:17:08;56470.56;;;-145.32;100.00
14041;BME280;7095;51.388;6.196;2022-12-16T07:19:54;56562.09;;;-145.32;100.00
14041;BME280;7095;51.388;6.196;2022-12-16T07:22:41;56540.22;;;-145.32;100.00
14041;BME280;7095;51.388;6.196;2022-12-16T07:25:39;56589.97;;;-145.32;100.00
14041;BME280;7095;51.388;6.196;2022-12-16T07:28:26;56665.56;;;-145.32;100.00
14041;BME280;7095;51.388;6.196;2022-12-16T07:31:12;56794.91;;;-145.32;100.00
14041;BME280;7095;51.388;6.196;2022-12-16T07:33:59;56826.75;;;-145.32;100.00
14041;BME280;7095;51.388;6.196;2022-12-16T07:36:45;56976.00;;;-145.32;100.00
14041;BME280;7095;51.388;6.196;2022-12-16T07:39:31;56908.34;;;-145.32;100.00
14041;BME280;7095;51.388;6.196;2022-12-16T07:42:23;56952.13;;;-145.32;100.00
14041;BME280;7095;51.388;6.196;2022-12-16T07:45:09;56800.91;;;-145.32;100.00
14041;BME280;7095;51.388;6.196;2022-12-16T07:47:55;56659.59;;;-145.32;100.00
14041;BME280;7095;51.388;6.196;2022-12-16T07:50:41;56751.16;;;-145.32;100.00
14041;BME280;7095;51.388;6.196;2022-12-16T07:53:28;56884.47;;;-145.32;100.00
14041;BME280;7095;51.388;6.196;2022-12-16T07:56:14;56926.25;;;-145.32;100.00
14041;BME280;7095;51.388;6.196;2022-12-16T07:59:02;56999.91;;;-145.32;100.00
14041;BME280;7095;51.388;6.196;2022-12-16T08:01:48;57073.53;;;-145.32;100.00
14041;BME280;7095;51.388;6.196;2022-12-16T08:04:35;57246.69;;;-145.32;100.00
14041;BME280;7095;51.388;6.196;2022-12-16T08:07:21;57324.31;;;-145.32;100.00
14041;BME280;7095;51.388;6.196;2022-12-16T08:10:08;57308.38;;;-145.32;100.00
14041;BME280;7095;51.388;6.196;2022-12-16T08:13:04;57461.63;;;-145.32;100.00
14041;BME280;7095;51.388;6.196;2022-12-16T08:15:53;57421.81;;;-145.32;100.00
14041;BME280;7095;51.388;6.196;2022-12-16T08:18:38;57350.19;;;-145.32;100.00
14041;BME280;7095;51.388;6.196;2022-12-16T08:21:25;57356.16;;;-145.32;100.00
14041;BME280;7095;51.388;6.196;2022-12-16T08:24:11;57310.38;;;-145.32;100.00
14041;BME280;7095;51.388;6.196;2022-12-16T08:27:02;57521.34;;;-145.32;100.00
14041;BME280;7095;51.388;6.196;2022-12-16T08:29:48;57577.09;;;-145.32;100.00
14041;BME280;7095;51.388;6.196;2022-12-16T08:32:36;57778.13;;;-145.32;100.00
14041;BME280;7095;51.388;6.196;2022-12-16T08:35:29;58150.38;;;-145.32;100.00
14041;BME280;7095;51.388;6.196;2022-12-16T08:38:17;58421.13;;;-145.32;100.00
14041;BME280;7095;51.388;6.196;2022-12-16T08:41:03;58476.88;;;-145.32;100.00
14041;BME280;7095;51.388;6.196;2022-12-16T08:43:50;58508.75;;;-145.32;100.00
14041;BME280;7095;51.388;6.196;2022-12-16T08:46:37;58474.91;;;-145.32;100.00
14041;BME280;7095;51.388;6.196;2022-12-16T08:49:24;58514.72;;;-145.32;100.00
14041;BME280;7095;51.388;6.196;2022-12-16T08:52:11;58703.88;;;-145.32;100.00
14041;BME280;7095;51.388;6.196;2022-12-16T08:54:58;58588.38;;;-145.32;100.00
14041;BME280;7095;51.388;6.196;2022-12-16T08:57:52;58347.47;;;-145.32;100.00
14041;BME280;7095;51.388;6.196;2022-12-16T09:00:37;58540.59;;;-145.32;100.00
14041;BME280;7095;51.388;6.196;2022-12-16T09:03:32;58747.66;;;-145.32;100.00
14041;BME280;7095;51.388;6.196;2022-12-16T09:06:20;58723.78;;;-145.32;100.00
14041;BME280;7095;51.388;6.196;2022-12-16T09:09:07;58843.25;;;-145.32;100.00
14041;BME280;7095;51.388;6.196;2022-12-16T09:11:54;59361.00;;;-145.32;100.00
14041;BME280;7095;51.388;6.196;2022-12-16T09:14:40;59550.19;;;-145.32;100.00
14041;BME280;7095;51.388;6.196;2022-12-16T09:17:27;59466.53;;;-145.32;100.00
14041;BME280;7095;51.388;6.196;2022-12-16T09:20:14;59139.94;;;-145.32;100.00
14041;BME280;7095;51.388;6.196;2022-12-16T09:23:02;59450.63;;;-145.32;100.00
14041;BME280;7095;51.388;6.196;2022-12-16T09:25:48;59400.81;;;-145.32;100.00
14041;BME280;7095;51.388;6.196;2022-12-16T09:28:35;59454.59;;;-145.32;100.00
14041;BME280;7095;51.388;6.196;2022-12-16T09:31:22;59729.44;;;-145.32;100.00
14041;BME280;7095;51.388;6.196;2022-12-16T09:34:08;59827.03;;;-145.32;100.00
14041;BME280;7095;51.388;6.196;2022-12-16T09:36:55;59852.94;;;-145.32;100.00
14041;BME280;7095;51.388;6.196;2022-12-16T09:39:42;60058.09;;;-145.32;100.00
14041;BME280;7095;51.388;6.196;2022-12-16T09:42:41;60237.38;;;-145.32;100.00
14041;BME280;7095;51.388;6.196;2022-12-16T09:45:37;60390.75;;;-145.32;100.00
14041;BME280;7095;51.388;6.196;2022-12-16T09:48:29;60360.88;;;-145.32;100.00
14041;BME280;7095;51.388;6.196;2022-12-16T09:51:16;60651.72;;;-145.32;100.00
14041;BME280;7095;51.388;6.196;2022-12-16T09:54:03;60938.63;;;-145.32;100.00
14041;BME280;7095;51.388;6.196;2022-12-16T09:56:54;60791.19;;;-145.32;100.00
14041;BME280;7095;51.388;6.196;2022-12-16T09:59:43;60671.66;;;-145.32;100.00
14041;BME280;7095;51.388;6.196;2022-12-16T10:02:31;60773.25;;;-145.32;100.00
14041;BME280;7095;51.388;6.196;2022-12-16T10:05:23;60717.47;;;-145.32;100.00
14041;BME280;7095;51.388;6.196;2022-12-16T10:08:18;60412.66;;;-145.32;100.00
14041;BME280;7095;51.388;6.196;2022-12-16T10:11:12;60169.63;;;-145.32;100.00
14041;BME280;7095;51.388;6.196;2022-12-16T10:14:06;60117.84;;;-145.32;100.00
14041;BME280;7095;51.388;6.196;2022-12-16T10:17:09;60153.72;;;-145.32;100.00
14041;BME280;7095;51.388;6.196;2022-12-16T10:20:02;60141.75;;;-145.32;100.00
14041;BME280;7095;51.388;6.196;2022-12-16T10:22:55;60663.69;;;-145.32;100.00
14041;BME280;7095;51.388;6.196;2022-12-16T10:25:47;60476.41;;;-145.32;100.00
14041;BME280;7095;51.388;6.196;2022-12-16T10:28:43;60677.63;;;-145.32;100.00
14041;BME280;7095;51.388;6.196;2022-12-16T10:31:32;60751.34;;;-145.32;100.00
14041;BME280;7095;51.388;6.196;2022-12-16T10:34:26;60277.22;;;-145.32;100.00
14041;BME280;7095;51.388;6.196;2022-12-16T10:37:19;61195.66;;;-145.32;100.00
14041;BME280;7095;51.388;6.196;2022-12-16T10:40:14;60986.44;;;-145.32;100.00
14041;BME280;7095;51.388;6.196;2022-12-16T10:43:03;60763.31;;;-145.32;100.00
14041;BME280;7095;51.388;6.196;2022-12-16T10:45:51;61032.28;;;-145.32;100.00
14041;BME280;7095;51.388;6.196;2022-12-16T10:48:40;61424.81;;;-145.32;100.00
14041;BME280;7095;51.388;6.196;2022-12-16T10:51:28;61281.34;;;-145.32;100.00
14041;BME280;7095;51.388;6.196;2022-12-16T10:54:24;60510.28;;;-145.32;100.00
14041;BME280;7095;51.388;6.196;2022-12-16T10:57:17;60508.28;;;-145.32;100.00
14041;BME280;7095;51.388;6.196;2022-12-16T11:00:12;61428.81;;;-145.32;100.00
14041;BME280;7095;51.388;6.196;2022-12-16T11:03:17;61508.50;;;-145.32;100.00
14041;BME280;7095;51.388;6.196;2022-12-16T11:06:06;61444.75;;;-145.32;100.00
14041;BME280;7095;51.388;6.196;2022-12-16T11:08:53;60876.88;;;-145.32;100.00
14041;BME280;7095;51.388;6.196;2022-12-16T11:11:39;60687.59;;;-145.32;100.00
14041;BME280;7095;51.388;6.196;2022-12-16T11:14:27;60739.41;;;-145.32;100.00
14041;BME280;7095;51.388;6.196;2022-12-16T11:17:34;60966.53;;;-145.32;100.00
14041;BME280;7095;51.388;6.196;2022-12-16T11:20:29;60637.78;;;-145.32;100.00
14041;BME280;7095;51.388;6.196;2022-12-16T11:23:18;61217.59;;;-145.32;100.00
14041;BME280;7095;51.388;6.196;2022-12-16T11:26:08;61536.41;;;-145.32;100.00
14041;BME280;7095;51.388;6.196;2022-12-16T11:29:05;60649.75;;;-145.32;100.00
14041;BME280;7095;51.388;6.196;2022-12-16T11:31:56;59412.78;;;-145.32;100.00
14041;BME280;7095;51.388;6.196;2022-12-16T11:34:49;59536.25;;;-145.32;100.00
14041;BME280;7095;51.388;6.196;2022-12-16T11:37:37;59014.50;;;-145.32;100.00
14041;BME280;7095;51.388;6.196;2022-12-16T11:40:25;58285.75;;;-145.32;100.00
14041;BME280;7095;51.388;6.196;2022-12-16T11:43:13;58546.56;;;-145.32;100.00
14041;BME280;7095;51.388;6.196;2022-12-16T11:46:05;58968.69;;;-145.32;100.00
14041;BME280;7095;51.388;6.196;2022-12-16T11:48:56;59434.69;;;-145.32;100.00
14041;BME280;7095;51.388;6.196;2022-12-16T11:51:54;59335.09;;;-145.32;100.00
14041;BME280;7095;51.388;6.196;2022-12-16T11:55:09;59014.50;;;-145.32;100.00
14041;BME280;7095;51.388;6.196;2022-12-16T11:58:25;59396.84;;;-145.32;100.00
14041;BME280;7095;51.388;6.196;2022-12-16T12:01:20;58779.53;;;-145.32;100.00
14041;BME280;7095;51.388;6.196;2022-12-16T12:04:13;58687.94;;;-145.32;100.00
14041;BME280;7095;51.388;6.196;2022-12-16T12:07:20;59086.19;;;-145.32;100.00
14041;BME280;7095;51.388;6.196;2022-12-16T12:13:44;58885.06;;;-145.32;100.00
14041;BME280;7095;51.388;6.196;2022-12-16T12:16:41;59078.22;;;-145.32;100.00
14041;BME280;7095;51.388;6.196;2022-12-16T12:19:40;59384.91;;;-145.32;100.00
14041;BME280;7095;51.388;6.196;2022-12-16T12:22:37;59259.44;;;-145.32;100.00
14041;BME280;7095;51.388;6.196;2022-12-16T12:25:28;59231.56;;;-145.32;100.00
14041;BME280;7095;51.388;6.196;2022-12-16T12:28:24;59805.13;;;-145.32;100.00
14041;BME280;7095;51.388;6.196;2022-12-16T12:31:23;59436.69;;;-145.32;100.00
14041;BME280;7095;51.388;6.196;2022-12-16T12:34:23;59233.53;;;-145.32;100.00
14041;BME280;7095;51.388;6.196;2022-12-16T12:37:19;59145.91;;;-145.32;100.00
14041;BME280;7095;51.388;6.196;2022-12-16T12:40:26;59044.38;;;-145.32;100.00
14041;BME280;7095;51.388;6.196;2022-12-16T12:43:21;58695.91;;;-145.32;100.00
14041;BME280;7095;51.388;6.196;2022-12-16T12:46:20;58863.16;;;-145.32;100.00
14041;BME280;7095;51.388;6.196;2022-12-16T12:49:12;59181.75;;;-145.32;100.00
14041;BME280;7095;51.388;6.196;2022-12-16T12:52:12;58815.38;;;-145.32;100.00
14041;BME280;7095;51.388;6.196;2022-12-16T12:55:05;58691.91;;;-145.32;100.00
14041;BME280;7095;51.388;6.196;2022-12-16T12:57:55;58453.00;;;-145.32;100.00
14041;BME280;7095;51.388;6.196;2022-12-16T13:00:48;58823.34;;;-145.32;100.00
14041;BME280;7095;51.388;6.196;2022-12-16T13:03:41;58948.78;;;-145.32;100.00
14041;BME280;7095;51.388;6.196;2022-12-16T13:06:29;59205.66;;;-145.32;100.00
14041;BME280;7095;51.388;6.196;2022-12-16T13:09:29;59488.47;;;-145.32;100.00
14041;BME280;7095;51.388;6.196;2022-12-16T13:12:28;60532.19;;;-145.32;100.00
14041;BME280;7095;51.388;6.196;2022-12-16T13:15:32;61512.50;;;-145.32;100.00
14041;BME280;7095;51.388;6.196;2022-12-16T13:18:28;62660.53;;;-145.32;100.00
14041;BME280;7095;51.388;6.196;2022-12-16T13:21:44;62987.47;;;-145.32;100.00
14041;BME280;7095;51.388;6.196;2022-12-16T13:24:46;64792.16;;;-145.32;100.00
14041;BME280;7095;51.388;6.196;2022-12-16T13:27:51;66693.63;;;-145.32;100.00
14041;BME280;7095;51.388;6.196;2022-12-16T13:30:40;70164.06;;;-145.32;100.00
14041;BME280;7095;51.388;6.196;2022-12-16T13:33:51;73234.09;;;-145.32;100.00
14041;BME280;7095;51.388;6.196;2022-12-16T13:36:41;74002.03;;;-145.32;100.00
14041;BME280;7095;51.388;6.196;2022-12-16T13:39:40;74258.06;;;-145.32;100.00
14041;BME280;7095;51.388;6.196;2022-12-16T13:42:55;76819.28;;;-145.32;100.00
14041;BME280;7095;51.388;6.196;2022-12-16T13:46:15;77844.31;;;-145.32;100.00
14041;BME280;7095;51.388;6.196;2022-12-16T13:49:38;79382.44;;;-145.32;100.00
14041;BME280;7095;51.388;6.196;2022-12-16T13:52:34;79382.44;;;-145.32;100.00
14041;BME280;7095;51.388;6.196;2022-12-16T13:55:51;79638.84;;;-145.32;100.00
14041;BME280;7095;51.388;6.196;2022-12-16T13:58:44;79382.44;;;-145.32;100.00
14041;BME280;7095;51.388;6.196;2022-12-16T14:01:40;80664.72;;;-145.32;100.00
14041;BME280;7095;51.388;6.196;2022-12-16T14:04:31;81690.91;;;-145.32;100.00
14041;BME280;7095;51.388;6.196;2022-12-16T14:07:36;82204.09;;;-145.32;100.00
14041;BME280;7095;51.388;6.196;2022-12-16T14:10:33;82717.38;;;-145.32;100.00
14041;BME280;7095;51.388;6.196;2022-12-16T14:13:27;82717.38;;;-145.32;100.00
14041;BME280;7095;51.388;6.196;2022-12-16T14:16:23;82974.03;;;-145.32;100.00
14041;BME280;7095;51.388;6.196;2022-12-16T14:19:26;82974.03;;;-145.32;100.00